Time;durP1;ratioP1;P1;durP2;ratioP2;P2;SDS_P1;SDS_P2;PMS_P1;PMS_P2;Temp;Humidity;BMP_temperature;BMP_pressure;BME280_temperature;BME280_humidity;BME280_pressure;Samples;Min_cycle;Max_cycle;Signal;HPM_P1;HPM_P2
2021/07/30 00:01:44;;;;;;;5.03;4.73;;;19.40;99.90;;;;;;10271909;28;20580;-81
2021/07/30 00:06:46;;;;;;;4.90;4.47;;;19.30;99.90;;;;;;10301386;28;20207;-81
2021/07/30 00:11:48;;;;;;;5.60;4.27;;;19.30;99.90;;;;;;10280595;28;20223;-81
2021/07/30 00:16:52;;;;;;;4.53;4.13;;;19.20;99.90;;;;;;10267172;28;20735;-81
2021/07/30 00:21:54;;;;;;;4.87;4.47;;;19.20;99.90;;;;;;10300303;28;20247;-81
2021/07/30 00:26:56;;;;;;;6.03;4.40;;;19.10;99.90;;;;;;10265943;28;20196;-81
2021/07/30 00:32:15;;;;;;;4.83;4.10;;;19.20;99.70;;;;;;10320273;23;20691;-82
2021/07/30 00:37:26;;;;;;;5.43;4.43;;;19.10;98.80;;;;;;10256692;28;20240;-82
2021/07/30 00:42:31;;;;;;;5.13;4.73;;;19.00;99.90;;;;;;10264217;28;20223;-82
2021/07/30 00:47:35;;;;;;;4.77;4.37;;;19.00;99.90;;;;;;10261158;28;20196;-82
2021/07/30 00:52:37;;;;;;;4.70;4.40;;;19.00;99.90;;;;;;10259174;28;20738;-82
2021/07/30 00:57:41;;;;;;;4.47;4.13;;;19.00;99.90;;;;;;10258489;28;20279;-81
2021/07/30 01:02:45;;;;;;;5.20;4.70;;;19.00;99.90;;;;;;10253505;28;20220;-82
2021/07/30 01:07:47;;;;;;;5.40;4.47;;;18.90;99.90;;;;;;10259576;28;20207;-81
2021/07/30 01:12:49;;;;;;;4.80;4.40;;;18.80;99.90;;;;;;10277263;28;20707;-81
2021/07/30 01:17:53;;;;;;;5.00;4.53;;;18.70;99.90;;;;;;10253251;28;20223;-82
2021/07/30 01:22:57;;;;;;;5.00;4.60;;;18.70;99.90;;;;;;10266426;28;20255;-81
2021/07/30 01:28:00;;;;;;;4.50;4.10;;;18.60;99.90;;;;;;10280202;28;20196;-81
2021/07/30 01:33:02;;;;;;;4.73;4.23;;;18.60;99.90;;;;;;10278986;28;20231;-81
2021/07/30 01:38:05;;;;;;;4.50;4.20;;;18.60;99.90;;;;;;10279985;28;20291;-81
2021/07/30 01:43:09;;;;;;;4.73;4.30;;;18.60;99.90;;;;;;10281289;28;20243;-82
2021/07/30 01:48:12;;;;;;;4.83;4.43;;;18.50;99.90;;;;;;10281550;28;20204;-82
2021/07/30 01:53:15;;;;;;;5.30;4.90;;;18.50;99.90;;;;;;10276359;28;20262;-81
2021/07/30 01:58:17;;;;;;;7.20;4.17;;;18.40;99.90;;;;;;10302551;28;20250;-81
2021/07/30 02:03:19;;;;;;;4.57;4.23;;;18.40;99.90;;;;;;10303599;28;20255;-81
2021/07/30 02:08:23;;;;;;;4.70;4.30;;;18.40;99.90;;;;;;10270654;28;20588;-80
2021/07/30 02:18:44;;;;;;;5.70;5.20;;;18.30;99.90;;;;;;10263850;28;20231;-82
2021/07/30 02:23:48;;;;;;;5.77;5.37;;;18.20;99.90;;;;;;10288030;28;20224;-82
2021/07/30 02:28:50;;;;;;;5.30;4.80;;;18.20;99.90;;;;;;10290270;28;20271;-81
2021/07/30 02:33:52;;;;;;;5.07;4.57;;;18.10;99.90;;;;;;10274396;28;20656;-82
2021/07/30 02:38:56;;;;;;;6.20;5.60;;;18.10;99.90;;;;;;10270740;28;20232;-82
2021/07/30 02:43:58;;;;;;;6.53;5.60;;;18.10;99.90;;;;;;10305745;28;20250;-82
2021/07/30 02:49:00;;;;;;;7.10;6.40;;;18.00;99.90;;;;;;10288943;28;20192;-82
2021/07/30 02:54:04;;;;;;;6.73;6.13;;;18.00;99.90;;;;;;10295677;28;20224;-82
2021/07/30 02:59:06;;;;;;;7.53;5.97;;;18.00;99.90;;;;;;10291584;28;20602;-81
2021/07/30 03:04:08;;;;;;;6.83;6.10;;;17.90;99.90;;;;;;10283730;28;20220;-82
2021/07/30 03:09:15;;;;;;;6.13;5.57;;;17.90;99.90;;;;;;10267247;28;20214;-82
2021/07/30 03:14:17;;;;;;;6.50;5.90;;;17.90;99.90;;;;;;10267571;28;20231;-81
2021/07/30 03:19:19;;;;;;;6.97;6.30;;;17.90;99.90;;;;;;10267663;28;20802;-81
2021/07/30 03:24:22;;;;;;;5.97;5.47;;;17.80;99.90;;;;;;10282974;28;20700;-81
2021/07/30 03:29:24;;;;;;;5.70;5.20;;;17.70;99.90;;;;;;10284104;28;20287;-81
2021/07/30 03:34:27;;;;;;;5.90;5.40;;;17.70;99.90;;;;;;10283080;28;20617;-82
2021/07/30 03:39:31;;;;;;;7.90;6.17;;;17.60;99.90;;;;;;10269645;28;20259;-81
2021/07/30 03:44:33;;;;;;;6.50;5.90;;;17.70;99.90;;;;;;10266613;28;20708;-81
2021/07/30 03:49:35;;;;;;;5.90;5.50;;;17.60;99.90;;;;;;10267186;28;20200;-81
2021/07/30 03:54:39;;;;;;;6.00;5.30;;;17.60;99.90;;;;;;10301780;28;20760;-81
2021/07/30 03:59:41;;;;;;;5.63;5.17;;;17.60;99.90;;;;;;10268519;28;20295;-81
2021/07/30 04:04:43;;;;;;;5.83;5.40;;;17.50;99.90;;;;;;10305611;28;20282;-82
2021/07/30 04:09:46;;;;;;;5.93;5.53;;;17.50;99.90;;;;;;10281155;28;20230;-81
2021/07/30 04:14:48;;;;;;;6.03;5.53;;;17.50;99.90;;;;;;10281438;28;20259;-82
2021/07/30 04:19:50;;;;;;;6.00;5.60;;;17.50;99.90;;;;;;10296314;28;20216;-82
2021/07/30 04:24:54;;;;;;;5.90;5.40;;;17.50;99.90;;;;;;10276003;28;20676;-81
2021/07/30 04:29:56;;;;;;;6.40;5.90;;;17.50;99.90;;;;;;10266471;28;20232;-81
2021/07/30 04:34:58;;;;;;;6.67;6.17;;;17.50;99.90;;;;;;10282622;28;20196;-81
2021/07/30 04:40:02;;;;;;;6.53;5.83;;;17.60;99.90;;;;;;10299991;28;20262;-83
2021/07/30 04:45:04;;;;;;;6.00;5.60;;;17.60;99.90;;;;;;10286114;28;20215;-82
2021/07/30 04:50:08;;;;;;;6.97;5.13;;;17.60;99.90;;;;;;10277133;28;20663;-82
2021/07/30 04:55:12;;;;;;;5.90;5.50;;;17.70;99.90;;;;;;10278746;28;20214;-82
2021/07/30 05:00:17;;;;;;;6.70;5.53;;;17.70;99.90;;;;;;10262741;28;20239;-82
2021/07/30 05:05:19;;;;;;;6.33;5.63;;;17.80;99.90;;;;;;10279699;28;20219;-82
2021/07/30 05:10:24;;;;;;;5.73;5.23;;;17.80;99.90;;;;;;10279240;28;20251;-81
2021/07/30 05:15:27;;;;;;;6.50;6.00;;;17.90;99.90;;;;;;10280550;28;20208;-83
2021/07/30 05:20:54;;;;;;;6.90;6.30;;;17.90;99.90;;;;;;10280634;28;20238;-81
2021/07/30 05:31:52;;;;;;;6.50;6.00;;;18.00;99.90;;;;;;10264086;28;20293;-83
2021/07/30 05:36:59;;;;;;;7.70;6.87;;;18.10;99.90;;;;;;10279573;28;20234;-82
2021/07/30 05:42:06;;;;;;;9.03;7.07;;;18.20;99.90;;;;;;10279818;28;20274;-83
2021/07/30 05:47:14;;;;;;;6.40;5.90;;;18.20;99.90;;;;;;10278545;28;20204;-82
2021/07/30 05:52:16;;;;;;;6.57;5.97;;;18.30;99.90;;;;;;10275113;28;20259;-82
2021/07/30 05:57:22;;;;;;;7.00;6.40;;;18.40;99.90;;;;;;10295429;28;20196;-81
2021/07/30 06:02:25;;;;;;;8.60;6.93;;;18.50;99.90;;;;;;10276487;28;20823;-82
2021/07/30 06:07:27;;;;;;;7.00;5.93;;;18.50;99.90;;;;;;10261001;28;20299;-83
2021/07/30 06:12:30;;;;;;;7.27;6.57;;;18.60;99.90;;;;;;10293219;28;20244;-83
2021/07/30 06:17:33;;;;;;;7.00;6.33;;;18.60;99.90;;;;;;10295163;28;20242;-83
2021/07/30 06:22:36;;;;;;;6.80;6.17;;;18.70;99.90;;;;;;10278023;28;20231;-83
2021/07/30 06:27:40;;;;;;;7.20;6.50;;;18.80;99.90;;;;;;10279441;28;20590;-83
2021/07/30 06:32:42;;;;;;;6.67;6.07;;;18.80;99.90;;;;;;10350690;23;20250;-81
2021/07/30 06:37:44;;;;;;;6.00;5.50;;;19.00;99.90;;;;;;10330817;28;20231;-81
2021/07/30 06:42:48;;;;;;;7.23;6.40;;;19.20;99.90;;;;;;10316032;28;20242;-82
2021/07/30 06:47:50;;;;;;;7.00;5.80;;;19.40;99.90;;;;;;10276059;28;20235;-81
2021/07/30 06:52:52;;;;;;;7.10;6.50;;;19.60;99.90;;;;;;10335863;28;20215;-81
2021/07/30 06:57:56;;;;;;;6.30;5.63;;;19.70;99.90;;;;;;10331276;28;20532;-81
2021/07/30 07:02:58;;;;;;;6.27;5.67;;;19.80;99.90;;;;;;10335472;28;20241;-81
2021/07/30 07:08:00;;;;;;;14.03;7.27;;;20.00;99.90;;;;;;10330014;28;20218;-81
2021/07/30 07:13:04;;;;;;;8.43;6.30;;;20.30;99.90;;;;;;10335381;28;20227;-81
2021/07/30 07:18:06;;;;;;;8.13;6.07;;;20.50;99.90;;;;;;10332728;28;20196;-81
2021/07/30 07:23:08;;;;;;;6.30;5.70;;;20.70;99.90;;;;;;10336589;28;20527;-81
2021/07/30 07:28:11;;;;;;;6.63;5.67;;;21.00;99.90;;;;;;10312051;28;20211;-82
2021/07/30 07:33:13;;;;;;;7.40;6.10;;;21.30;99.90;;;;;;10329597;28;20259;-82
2021/07/30 07:38:16;;;;;;;6.10;5.50;;;21.60;99.90;;;;;;10301821;28;20655;-81
2021/07/30 07:43:19;;;;;;;7.17;6.17;;;21.90;99.90;;;;;;10295619;28;20234;-82
2021/07/30 07:48:21;;;;;;;5.70;5.20;;;22.20;99.90;;;;;;10299854;28;20213;-82
2021/07/30 07:53:23;;;;;;;6.10;5.50;;;22.60;99.90;;;;;;10304962;28;20601;-82
2021/07/30 07:58:27;;;;;;;6.50;5.47;;;23.00;99.90;;;;;;10308139;28;20254;-82
2021/07/30 08:03:29;;;;;;;5.47;5.07;;;23.30;99.90;;;;;;10317600;28;20234;-82
2021/07/30 08:08:31;;;;;;;4.70;4.40;;;23.60;99.90;;;;;;10338494;28;20195;-82
2021/07/30 08:13:34;;;;;;;6.77;5.60;;;24.00;99.90;;;;;;10337938;28;20249;-82
2021/07/30 08:18:37;;;;;;;5.60;5.10;;;24.40;99.00;;;;;;10339284;28;20291;-82
2021/07/30 08:23:39;;;;;;;5.70;5.17;;;24.90;97.70;;;;;;10339077;28;20219;-82
2021/07/30 08:28:42;;;;;;;6.00;5.50;;;25.50;97.10;;;;;;10334288;28;20203;-82
2021/07/30 08:33:44;;;;;;;6.97;4.83;;;26.10;96.00;;;;;;10328803;28;20227;-82
2021/07/30 08:38:47;;;;;;;5.80;5.20;;;26.70;94.50;;;;;;10308568;28;20225;-82
2021/07/30 08:43:55;;;;;;;5.20;4.70;;;27.20;92.70;;;;;;10334770;28;20242;-82
2021/07/30 08:48:57;;;;;;;5.07;4.67;;;27.60;91.60;;;;;;10330160;28;20278;-82
2021/07/30 08:54:00;;;;;;;5.23;4.83;;;27.90;90.70;;;;;;10322964;28;20256;-82
2021/07/30 08:59:03;;;;;;;4.93;4.43;;;28.30;90.40;;;;;;10330746;28;20222;-82
2021/07/30 09:04:06;;;;;;;4.67;4.37;;;28.60;87.60;;;;;;10339000;28;20211;-82
2021/07/30 09:09:08;;;;;;;5.53;5.13;;;28.90;84.40;;;;;;10336141;28;20223;-82
2021/07/30 09:14:13;;;;;;;5.13;4.77;;;29.20;82.70;;;;;;10322642;28;20687;-82
2021/07/30 09:19:15;;;;;;;5.90;5.10;;;29.40;83.00;;;;;;10331191;28;20222;-82
2021/07/30 09:24:19;;;;;;;5.53;5.03;;;29.60;82.80;;;;;;10331151;28;20234;-82
2021/07/30 09:29:24;;;;;;;5.33;4.93;;;29.60;80.50;;;;;;10319674;28;20207;-82
2021/07/30 09:34:28;;;;;;;4.57;4.17;;;29.60;78.60;;;;;;10312971;28;20230;-82
2021/07/30 09:39:39;;;;;;;5.43;5.03;;;29.80;80.10;;;;;;10296404;28;20215;-82
2021/07/30 09:44:52;;;;;;;7.67;4.70;;;30.00;76.40;;;;;;10297936;28;20249;-82
2021/07/30 09:49:56;;;;;;;5.37;4.87;;;30.10;75.50;;;;;;10290430;28;20291;-82
2021/07/30 09:55:00;;;;;;;5.60;5.20;;;30.40;74.90;;;;;;10292024;28;20230;-82
2021/07/30 10:00:06;;;;;;;5.67;5.07;;;30.60;71.90;;;;;;10319867;28;20259;-83
2021/07/30 10:05:11;;;;;;;5.37;4.97;;;31.00;72.40;;;;;;10328278;28;20726;-82
2021/07/30 10:10:17;;;;;;;5.90;5.40;;;31.40;72.50;;;;;;10328660;28;20207;-83
2021/07/30 10:15:21;;;;;;;5.07;4.73;;;32.00;70.60;;;;;;10333625;28;20199;-83
2021/07/30 10:20:25;;;;;;;6.17;5.67;;;32.30;67.80;;;;;;10316858;28;20219;-82
2021/07/30 10:25:30;;;;;;;5.93;5.50;;;32.10;68.20;;;;;;10321308;28;20203;-82
2021/07/30 10:30:52;;;;;;;5.50;5.10;;;31.60;68.00;;;;;;10316453;28;20242;-82
2021/07/30 10:35:54;;;;;;;5.87;5.47;;;30.80;72.50;;;;;;10337280;28;20214;-83
2021/07/30 10:41:19;;;;;;;7.17;6.67;;;30.10;73.00;;;;;;10336885;28;20295;-82
2021/07/30 10:46:23;;;;;;;6.57;5.70;;;29.40;74.20;;;;;;10345412;28;20203;-82
2021/07/30 10:51:27;;;;;;;6.57;5.97;;;29.00;76.30;;;;;;10339019;28;20590;-82
2021/07/30 10:56:48;;;;;;;9.37;5.40;;;28.90;76.20;;;;;;10308520;28;20230;-83
2021/07/30 11:01:59;;;;;;;7.00;6.33;;;28.70;75.70;;;;;;10343501;28;20223;-82
2021/07/30 11:07:04;;;;;;;6.77;6.00;;;28.40;77.20;;;;;;10325391;28;20581;-82
2021/07/30 11:12:19;;;;;;;6.07;5.57;;;28.30;78.50;;;;;;10331660;28;20266;-82
2021/07/30 11:17:23;;;;;;;5.90;5.40;;;28.00;80.90;;;;;;10335743;28;20220;-82
2021/07/30 11:22:26;;;;;;;5.90;5.47;;;27.80;82.70;;;;;;10340986;28;20231;-82
2021/07/30 11:27:29;;;;;;;5.50;5.10;;;27.70;79.10;;;;;;10312877;28;20211;-82
2021/07/30 11:32:32;;;;;;;5.40;5.00;;;27.50;83.70;;;;;;10325892;28;20235;-82
2021/07/30 11:37:34;;;;;;;6.00;5.27;;;27.50;84.10;;;;;;10336923;28;20227;-82
2021/07/30 11:42:38;;;;;;;5.93;5.53;;;27.40;86.40;;;;;;10337187;28;20774;-82
2021/07/30 11:47:43;;;;;;;5.80;5.30;;;27.20;81.80;;;;;;10319714;28;20191;-82
2021/07/30 11:52:45;;;;;;;5.30;4.90;;;27.20;83.10;;;;;;10327766;28;20577;-82
2021/07/30 11:57:51;;;;;;;6.73;6.13;;;27.20;83.50;;;;;;10335166;28;20211;-82
2021/07/30 12:02:55;;;;;;;6.10;5.67;;;27.30;84.00;;;;;;10339740;28;20231;-82
2021/07/30 12:07:59;;;;;;;6.13;5.63;;;27.20;82.40;;;;;;10339611;28;20202;-82
2021/07/30 12:13:03;;;;;;;6.50;5.90;;;27.00;82.10;;;;;;10337647;28;20223;-82
2021/07/30 12:18:07;;;;;;;6.30;5.80;;;26.70;83.80;;;;;;10338905;28;20269;-82
2021/07/30 12:23:11;;;;;;;5.60;5.20;;;26.60;84.00;;;;;;10311869;28;20234;-82
2021/07/30 12:28:15;;;;;;;6.93;6.40;;;26.70;83.50;;;;;;10331301;28;20235;-82
2021/07/30 12:33:29;;;;;;;6.70;6.20;;;26.90;85.10;;;;;;10344393;28;20226;-82
2021/07/30 12:38:32;;;;;;;9.33;6.40;;;27.10;82.60;;;;;;10343487;28;20227;-82
2021/07/30 12:43:38;;;;;;;6.53;5.70;;;27.30;83.60;;;;;;10326960;28;20259;-82
2021/07/30 12:48:48;;;;;;;6.70;6.20;;;27.30;85.40;;;;;;10338427;28;20231;-82
2021/07/30 12:54:01;;;;;;;6.90;6.33;;;27.40;85.00;;;;;;10346651;28;20264;-82
2021/07/30 12:59:03;;;;;;;6.83;6.27;;;27.50;85.30;;;;;;10342976;28;20567;-82
2021/07/30 13:04:08;;;;;;;11.70;5.63;;;27.50;84.00;;;;;;10349086;28;20248;-82
2021/07/30 13:09:11;;;;;;;6.47;5.93;;;27.50;86.20;;;;;;10330170;28;20242;-82
2021/07/30 13:14:13;;;;;;;8.63;5.60;;;27.50;85.70;;;;;;10343899;28;20222;-82
2021/07/30 13:19:16;;;;;;;6.97;6.27;;;27.30;84.70;;;;;;10337783;28;20215;-82
2021/07/30 13:24:18;;;;;;;6.30;5.80;;;27.20;86.80;;;;;;10343868;28;20279;-82
2021/07/30 13:29:22;;;;;;;9.03;5.77;;;27.10;86.70;;;;;;10308997;28;20238;-82
2021/07/30 13:34:25;;;;;;;7.43;6.13;;;27.10;87.10;;;;;;10309221;28;20311;-82
2021/07/30 13:39:27;;;;;;;7.07;6.57;;;27.20;89.40;;;;;;10339267;28;20217;-83
2021/07/30 13:44:29;;;;;;;6.17;5.63;;;27.10;88.60;;;;;;10309205;28;20223;-82
2021/07/30 13:49:33;;;;;;;6.40;5.90;;;26.90;86.90;;;;;;10326410;28;20245;-83
2021/07/30 13:54:35;;;;;;;7.73;6.97;;;26.80;86.60;;;;;;10327375;28;20219;-83
2021/07/30 13:59:38;;;;;;;5.80;5.23;;;26.60;86.60;;;;;;10335409;28;20199;-82
2021/07/30 14:04:41;;;;;;;8.27;7.60;;;26.60;89.90;;;;;;10343738;28;20227;-83
2021/07/30 14:09:43;;;;;;;8.00;6.30;;;26.70;86.00;;;;;;10342906;28;20203;-83
2021/07/30 14:14:45;;;;;;;6.97;6.47;;;26.70;85.70;;;;;;10336181;28;20223;-83
2021/07/30 14:19:49;;;;;;;7.90;6.20;;;26.70;88.50;;;;;;10315799;28;20215;-82
2021/07/30 14:24:51;;;;;;;7.00;6.37;;;26.70;89.50;;;;;;10317419;28;20303;-82
2021/07/30 14:29:53;;;;;;;7.53;6.83;;;26.70;91.30;;;;;;10301150;28;20215;-82
2021/07/30 14:34:56;;;;;;;7.70;6.57;;;26.70;92.30;;;;;;10309824;28;20227;-82
2021/07/30 14:39:59;;;;;;;7.50;6.80;;;26.60;92.30;;;;;;10308225;28;20243;-82
2021/07/30 14:45:04;;;;;;;7.70;7.00;;;26.60;91.30;;;;;;10316721;28;20250;-82
2021/07/30 14:50:09;;;;;;;7.47;6.70;;;26.50;92.00;;;;;;10307195;28;20588;-83
2021/07/30 14:55:12;;;;;;;7.23;6.73;;;26.40;91.00;;;;;;10279477;28;20740;-83
2021/07/30 15:00:14;;;;;;;7.20;6.60;;;26.40;91.10;;;;;;10292380;28;20676;-82
2021/07/30 15:05:18;;;;;;;7.23;6.60;;;26.40;89.80;;;;;;10298815;28;20278;-82
2021/07/30 15:10:20;;;;;;;7.03;6.43;;;26.40;89.40;;;;;;10306176;28;20196;-81
2021/07/30 15:15:22;;;;;;;7.17;6.60;;;26.40;90.70;;;;;;10290078;28;20290;-82
2021/07/30 15:20:26;;;;;;;6.77;6.23;;;26.30;92.30;;;;;;10338129;28;20255;-82
2021/07/30 15:25:28;;;;;;;9.27;6.60;;;26.30;90.60;;;;;;10302329;28;20235;-82
2021/07/30 15:30:30;;;;;;;7.53;6.63;;;26.40;91.80;;;;;;10322161;28;20311;-83
2021/07/30 15:35:33;;;;;;;7.30;6.70;;;26.40;91.60;;;;;;10307915;28;20282;-82
2021/07/30 15:40:35;;;;;;;7.07;6.57;;;26.50;91.40;;;;;;10320953;28;20226;-82
2021/07/30 15:45:38;;;;;;;6.63;6.23;;;26.50;90.60;;;;;;10309067;28;20211;-82
2021/07/30 15:50:41;;;;;;;8.00;6.50;;;26.50;90.30;;;;;;10326408;28;20219;-82
2021/07/30 15:55:43;;;;;;;5.77;5.37;;;26.60;89.40;;;;;;10324876;28;20209;-82
2021/07/30 16:00:46;;;;;;;6.47;5.97;;;26.60;90.80;;;;;;10313427;28;20319;-82
2021/07/30 16:05:52;;;;;;;6.33;5.87;;;26.70;89.90;;;;;;10318499;28;20278;-82
2021/07/30 16:11:05;;;;;;;6.40;5.80;;;26.80;90.40;;;;;;10321244;28;20729;-82
2021/07/30 16:16:09;;;;;;;6.47;5.97;;;26.70;90.60;;;;;;10323836;28;20315;-82
2021/07/30 16:21:13;;;;;;;7.20;6.60;;;26.60;91.50;;;;;;10297587;28;20238;-82
2021/07/30 16:26:18;;;;;;;7.80;7.10;;;26.50;92.30;;;;;;10322682;28;20207;-82
2021/07/30 16:54:07;;;;;;;8.03;7.37;;;25.70;93.80;;;;;;10286310;28;20299;-81
2021/07/30 18:22:51;;;;;;;8.33;7.53;;;22.90;99.90;;;;;;10203021;28;20329;-82
2021/07/30 18:27:53;;;;;;;7.80;7.13;;;22.80;99.90;;;;;;10280402;28;20211;-82
2021/07/30 18:32:55;;;;;;;9.43;8.53;;;22.80;99.90;;;;;;10291495;28;20227;-83
2021/07/30 18:37:59;;;;;;;7.97;7.37;;;22.80;99.90;;;;;;10293179;28;20243;-82
2021/07/30 18:43:01;;;;;;;9.00;7.37;;;22.80;99.90;;;;;;10325308;28;20242;-82
2021/07/30 18:48:03;;;;;;;10.00;8.27;;;22.80;99.90;;;;;;10328562;28;20211;-82
2021/07/30 18:53:07;;;;;;;8.23;7.50;;;22.80;99.90;;;;;;10330656;28;20227;-83
2021/07/30 18:58:09;;;;;;;8.97;8.17;;;22.80;99.90;;;;;;10318136;28;20535;-82
2021/07/30 19:03:11;;;;;;;5.50;5.00;;;22.80;99.90;;;;;;10329333;28;20715;-82
2021/07/30 19:08:14;;;;;;;7.13;6.60;;;22.80;99.90;;;;;;10341377;28;20211;-83
2021/07/30 19:13:17;;;;;;;7.20;6.70;;;22.70;99.90;;;;;;10291637;28;20224;-82
2021/07/30 19:18:19;;;;;;;7.30;6.70;;;22.70;99.90;;;;;;10301033;28;20665;-82
2021/07/30 19:23:23;;;;;;;8.97;8.27;;;22.60;99.90;;;;;;10264154;28;20704;-82
2021/07/30 19:28:25;;;;;;;7.53;6.93;;;22.60;99.90;;;;;;10270025;28;20287;-83
2021/07/30 19:33:27;;;;;;;7.47;6.87;;;22.60;99.90;;;;;;10282385;28;20260;-82
2021/07/30 19:38:31;;;;;;;7.00;6.40;;;22.50;99.90;;;;;;10297887;28;20203;-82
2021/07/30 19:43:33;;;;;;;7.23;6.73;;;22.50;99.90;;;;;;10293497;28;20290;-82
2021/07/30 19:48:35;;;;;;;8.37;7.50;;;22.50;99.90;;;;;;10295303;28;20215;-82
2021/07/30 19:53:38;;;;;;;7.23;6.70;;;22.40;99.90;;;;;;10264531;28;20239;-82
2021/07/30 19:58:40;;;;;;;7.30;6.70;;;22.40;99.90;;;;;;10282541;28;20271;-83
2021/07/30 20:03:42;;;;;;;7.47;6.87;;;22.40;99.90;;;;;;10312142;28;20770;-82
2021/07/30 20:08:46;;;;;;;7.60;6.93;;;22.40;99.90;;;;;;10316716;28;20210;-82
2021/07/30 20:13:49;;;;;;;8.60;7.80;;;22.40;99.90;;;;;;10304455;28;20223;-82
2021/07/30 20:18:52;;;;;;;8.77;7.97;;;22.50;99.90;;;;;;10312860;28;20294;-82
2021/07/30 20:23:56;;;;;;;8.57;7.90;;;22.50;99.90;;;;;;10308470;28;20314;-83
2021/07/30 20:28:58;;;;;;;9.17;8.40;;;22.50;99.90;;;;;;10343672;28;20211;-83
2021/07/30 20:34:00;;;;;;;8.07;7.27;;;22.60;99.90;;;;;;10327990;28;20722;-82
2021/07/30 20:39:04;;;;;;;8.60;7.80;;;22.60;99.90;;;;;;10330094;28;20218;-83
2021/07/30 20:44:08;;;;;;;8.57;7.87;;;22.60;99.90;;;;;;10303651;28;20226;-82
2021/07/30 20:49:11;;;;;;;9.53;7.60;;;22.60;99.90;;;;;;10308234;28;20676;-82
2021/07/30 20:54:14;;;;;;;8.77;7.90;;;22.60;99.90;;;;;;10342973;28;20227;-82
2021/07/30 20:59:16;;;;;;;8.20;7.60;;;22.60;99.90;;;;;;10326959;28;20208;-82
2021/07/30 21:04:18;;;;;;;7.90;7.20;;;22.60;99.90;;;;;;10320818;28;20231;-83
2021/07/30 21:09:22;;;;;;;9.70;8.80;;;22.50;99.90;;;;;;10350331;28;20301;-82
2021/07/30 21:14:24;;;;;;;8.47;7.80;;;22.50;99.90;;;;;;10346809;28;20755;-83
2021/07/30 21:19:26;;;;;;;9.60;8.83;;;22.50;99.90;;;;;;10307723;28;20225;-82
2021/07/30 21:24:29;;;;;;;10.20;9.20;;;22.50;99.90;;;;;;10336068;28;20231;-82
2021/07/30 21:29:32;;;;;;;9.10;8.40;;;22.40;99.90;;;;;;10318644;28;20240;-81
2021/07/30 21:34:34;;;;;;;9.47;8.57;;;22.40;99.90;;;;;;10340518;28;20237;-82
2021/07/30 21:39:39;;;;;;;9.27;8.57;;;22.30;99.90;;;;;;10327091;28;20218;-82
2021/07/30 21:44:41;;;;;;;10.03;7.97;;;22.20;99.90;;;;;;10322200;28;20270;-82
2021/07/30 21:49:43;;;;;;;10.30;9.40;;;22.10;99.90;;;;;;10310204;28;20298;-82
2021/07/30 21:54:46;;;;;;;9.50;8.70;;;22.10;99.90;;;;;;10305749;28;20230;-82
2021/07/30 21:59:51;;;;;;;9.17;8.40;;;22.10;99.90;;;;;;10331337;28;20207;-82
2021/07/30 22:04:53;;;;;;;9.97;9.07;;;22.00;99.90;;;;;;10346827;28;20238;-82
2021/07/30 22:09:57;;;;;;;9.60;8.70;;;22.00;99.90;;;;;;10344877;28;20594;-82
2021/07/30 22:14:59;;;;;;;9.57;8.80;;;21.90;99.90;;;;;;10347571;28;20223;-83
2021/07/30 22:20:01;;;;;;;10.20;9.30;;;21.90;99.90;;;;;;10338783;28;20228;-82
2021/07/30 22:25:06;;;;;;;9.60;8.80;;;21.80;99.90;;;;;;10332851;28;20360;-82
2021/07/30 22:30:10;;;;;;;9.60;8.90;;;21.80;99.90;;;;;;10340209;28;20205;-82
2021/07/30 22:35:13;;;;;;;10.30;9.43;;;21.70;99.90;;;;;;10354021;28;20246;-82
2021/07/30 22:40:24;;;;;;;9.00;8.20;;;21.70;99.90;;;;;;10314121;28;20298;-82
2021/07/30 22:45:26;;;;;;;10.00;9.13;;;21.70;99.90;;;;;;10324837;28;20301;-82
2021/07/30 22:50:28;;;;;;;11.63;9.17;;;21.60;99.90;;;;;;10316874;28;20245;-82
2021/07/30 22:55:32;;;;;;;9.27;8.60;;;21.60;99.90;;;;;;10348997;28;20200;-82
2021/07/30 23:00:35;;;;;;;11.03;9.93;;;21.50;99.90;;;;;;10309704;28;20696;-82
2021/07/30 23:05:37;;;;;;;9.47;8.67;;;21.50;99.90;;;;;;10334522;28;20219;-82
2021/07/30 23:10:40;;;;;;;9.23;8.33;;;21.50;99.90;;;;;;10355427;28;20227;-82
2021/07/30 23:15:42;;;;;;;9.73;8.43;;;21.50;99.90;;;;;;10331231;28;20223;-82
2021/07/30 23:20:44;;;;;;;10.43;9.63;;;21.40;99.90;;;;;;10337246;28;20227;-82
2021/07/30 23:25:48;;;;;;;9.80;9.00;;;21.40;99.90;;;;;;10316986;28;20237;-82
2021/07/30 23:30:50;;;;;;;9.43;8.63;;;21.40;99.90;;;;;;10351176;28;20223;-83
2021/07/30 23:35:52;;;;;;;9.20;8.40;;;21.30;99.90;;;;;;10337940;28;20203;-82
2021/07/30 23:40:55;;;;;;;9.60;8.90;;;21.30;99.90;;;;;;10335095;28;20326;-82
2021/07/30 23:46:04;;;;;;;9.00;8.30;;;21.20;99.90;;;;;;10332248;28;20711;-82
2021/07/30 23:51:08;;;;;;;9.80;8.80;;;21.20;99.90;;;;;;10349573;28;20227;-82
2021/07/30 23:56:13;;;;;;;9.57;8.53;;;21.20;99.90;;;;;;10317146;28;20230;-82
